sensor_id;sensor_type;location;lat;lon;timestamp;temperature;humidity
42803;DHT22;28447;48.682;9.022;2023-10-09T04:00:11;11.00;99.90
42803;DHT22;28447;48.682;9.022;2023-10-09T04:02:42;11.10;99.90
42803;DHT22;28447;48.682;9.022;2023-10-09T04:05:08;11.10;99.90
42803;DHT22;28447;48.682;9.022;2023-10-09T04:07:34;11.10;99.90
42803;DHT22;28447;48.682;9.022;2023-10-09T04:10:01;11.10;99.90
42803;DHT22;28447;48.682;9.022;2023-10-09T04:12:49;11.10;99.90
42803;DHT22;28447;48.682;9.022;2023-10-09T04:15:18;11.10;99.90
42803;DHT22;28447;48.682;9.022;2023-10-09T04:17:48;11.10;99.90
42803;DHT22;28447;48.682;9.022;2023-10-09T04:20:17;11.00;99.90
42803;DHT22;28447;48.682;9.022;2023-10-09T04:22:43;11.00;99.90
42803;DHT22;28447;48.682;9.022;2023-10-09T04:25:19;10.90;99.90
42803;DHT22;28447;48.682;9.022;2023-10-09T04:27:58;10.90;99.90
42803;DHT22;28447;48.682;9.022;2023-10-09T04:30:43;10.90;99.90
42803;DHT22;28447;48.682;9.022;2023-10-09T04:33:14;10.90;99.90
42803;DHT22;28447;48.682;9.022;2023-10-09T04:36:02;10.90;99.90
42803;DHT22;28447;48.682;9.022;2023-10-09T04:38:51;10.90;99.90
42803;DHT22;28447;48.682;9.022;2023-10-09T04:41:30;10.90;99.90
42803;DHT22;28447;48.682;9.022;2023-10-09T04:44:17;10.90;99.90
42803;DHT22;28447;48.682;9.022;2023-10-09T04:46:52;10.80;99.90
42803;DHT22;28447;48.682;9.022;2023-10-09T04:49:40;10.80;99.90
42803;DHT22;28447;48.682;9.022;2023-10-09T04:52:29;10.80;99.90
42803;DHT22;28447;48.682;9.022;2023-10-09T04:55:04;10.90;99.90
42803;DHT22;28447;48.682;9.022;2023-10-09T04:57:30;10.90;99.90
42803;DHT22;28447;48.682;9.022;2023-10-09T05:00:07;10.80;99.90
42803;DHT22;28447;48.682;9.022;2023-10-09T05:02:48;10.80;99.90
42803;DHT22;28447;48.682;9.022;2023-10-09T05:05:29;10.90;99.90
42803;DHT22;28447;48.682;9.022;2023-10-09T05:08:17;10.90;99.90
42803;DHT22;28447;48.682;9.022;2023-10-09T05:10:56;11.00;99.90
42803;DHT22;28447;48.682;9.022;2023-10-09T05:13:47;10.90;99.90
42803;DHT22;28447;48.682;9.022;2023-10-09T05:16:23;10.90;99.90
42803;DHT22;28447;48.682;9.022;2023-10-09T05:18:52;10.90;99.90
42803;DHT22;28447;48.682;9.022;2023-10-09T05:21:39;10.90;99.90
42803;DHT22;28447;48.682;9.022;2023-10-09T05:24:08;10.90;99.90
42803;DHT22;28447;48.682;9.022;2023-10-09T05:26:51;10.90;99.90
42803;DHT22;28447;48.682;9.022;2023-10-09T05:29:24;10.90;99.90
42803;DHT22;28447;48.682;9.022;2023-10-09T05:32:03;10.90;99.90
42803;DHT22;28447;48.682;9.022;2023-10-09T05:34:31;11.00;99.90
42803;DHT22;28447;48.682;9.022;2023-10-09T05:37:03;11.00;99.90
42803;DHT22;28447;48.682;9.022;2023-10-09T05:39:48;11.00;99.90
42803;DHT22;28447;48.682;9.022;2023-10-09T05:45:13;11.10;99.90
42803;DHT22;28447;48.682;9.022;2023-10-09T05:47:57;11.10;99.90
42803;DHT22;28447;48.682;9.022;2023-10-09T05:50:28;11.10;99.90
42803;DHT22;28447;48.682;9.022;2023-10-09T05:52:55;11.10;99.90
42803;DHT22;28447;48.682;9.022;2023-10-09T05:55:22;11.20;99.90
42803;DHT22;28447;48.682;9.022;2023-10-09T05:57:55;11.20;99.90
42803;DHT22;28447;48.682;9.022;2023-10-09T06:00:21;11.30;99.90
42803;DHT22;28447;48.682;9.022;2023-10-09T06:03:06;11.40;99.90
42803;DHT22;28447;48.682;9.022;2023-10-09T10:07:31;21.60;99.90
42803;DHT22;28447;48.682;9.022;2023-10-09T10:10:40;21.60;99.90
42803;DHT22;28447;48.682;9.022;2023-10-09T13:15:00;31.00;90.60
42803;DHT22;28447;48.682;9.022;2023-10-09T13:17:26;29.60;90.80
42803;DHT22;28447;48.682;9.022;2023-10-09T13:19:54;28.20;92.00
42803;DHT22;28447;48.682;9.022;2023-10-09T13:22:21;29.30;92.10
42803;DHT22;28447;48.682;9.022;2023-10-09T13:24:48;30.20;90.50
42803;DHT22;28447;48.682;9.022;2023-10-09T13:27:15;29.70;86.80
42803;DHT22;28447;48.682;9.022;2023-10-09T13:29:47;30.60;88.00
42803;DHT22;28447;48.682;9.022;2023-10-09T13:32:13;30.50;87.80
42803;DHT22;28447;48.682;9.022;2023-10-09T13:34:43;29.90;86.70
42803;DHT22;28447;48.682;9.022;2023-10-09T13:37:12;29.70;86.30
42803;DHT22;28447;48.682;9.022;2023-10-09T13:39:39;31.10;89.50
42803;DHT22;28447;48.682;9.022;2023-10-09T13:42:05;30.00;87.70
42803;DHT22;28447;48.682;9.022;2023-10-09T13:44:33;28.00;90.10
42803;DHT22;28447;48.682;9.022;2023-10-09T13:47:01;28.70;91.20
42803;DHT22;28447;48.682;9.022;2023-10-09T13:49:28;29.60;88.70
42803;DHT22;28447;48.682;9.022;2023-10-09T13:51:57;30.50;86.70
42803;DHT22;28447;48.682;9.022;2023-10-09T13:54:23;29.30;84.60
42803;DHT22;28447;48.682;9.022;2023-10-09T13:57:03;28.40;88.50
42803;DHT22;28447;48.682;9.022;2023-10-09T13:59:32;27.60;84.80
42803;DHT22;28447;48.682;9.022;2023-10-09T14:02:00;28.20;84.50
42803;DHT22;28447;48.682;9.022;2023-10-09T14:04:28;28.30;87.50
42803;DHT22;28447;48.682;9.022;2023-10-09T14:06:54;28.90;82.20
42803;DHT22;28447;48.682;9.022;2023-10-09T14:09:24;29.50;83.20
42803;DHT22;28447;48.682;9.022;2023-10-09T14:12:00;30.00;77.90
42803;DHT22;28447;48.682;9.022;2023-10-09T14:14:38;30.60;77.70
42803;DHT22;28447;48.682;9.022;2023-10-09T14:17:09;31.90;69.80
42803;DHT22;28447;48.682;9.022;2023-10-09T14:19:47;31.70;73.40
42803;DHT22;28447;48.682;9.022;2023-10-09T14:22:18;29.90;73.30
42803;DHT22;28447;48.682;9.022;2023-10-09T14:24:45;29.60;74.00
42803;DHT22;28447;48.682;9.022;2023-10-09T14:27:12;30.40;76.80
42803;DHT22;28447;48.682;9.022;2023-10-09T14:29:55;31.20;72.80
42803;DHT22;28447;48.682;9.022;2023-10-09T14:32:25;29.70;77.20
42803;DHT22;28447;48.682;9.022;2023-10-09T14:35:13;28.90;80.10
42803;DHT22;28447;48.682;9.022;2023-10-09T14:37:39;28.40;82.10
42803;DHT22;28447;48.682;9.022;2023-10-09T14:40:14;29.00;82.50
42803;DHT22;28447;48.682;9.022;2023-10-09T14:42:52;27.70;84.10
42803;DHT22;28447;48.682;9.022;2023-10-09T14:45:27;28.00;87.20
42803;DHT22;28447;48.682;9.022;2023-10-09T14:47:53;27.10;85.00
42803;DHT22;28447;48.682;9.022;2023-10-09T14:50:20;26.40;87.00
42803;DHT22;28447;48.682;9.022;2023-10-09T14:52:49;26.60;86.60
42803;DHT22;28447;48.682;9.022;2023-10-09T14:55:16;26.90;86.80
42803;DHT22;28447;48.682;9.022;2023-10-09T14:57:47;26.60;86.40
42803;DHT22;28447;48.682;9.022;2023-10-09T15:00:15;26.50;86.60
42803;DHT22;28447;48.682;9.022;2023-10-09T15:02:41;26.20;86.40
42803;DHT22;28447;48.682;9.022;2023-10-09T15:05:07;25.80;87.70
42803;DHT22;28447;48.682;9.022;2023-10-09T15:07:37;25.40;88.80
42803;DHT22;28447;48.682;9.022;2023-10-09T15:10:06;25.30;88.90
42803;DHT22;28447;48.682;9.022;2023-10-09T15:12:34;25.40;89.10
42803;DHT22;28447;48.682;9.022;2023-10-09T15:15:05;25.60;89.20
42803;DHT22;28447;48.682;9.022;2023-10-09T15:17:42;25.50;89.40
42803;DHT22;28447;48.682;9.022;2023-10-09T15:20:13;25.30;89.20
42803;DHT22;28447;48.682;9.022;2023-10-09T15:22:44;25.30;90.20
42803;DHT22;28447;48.682;9.022;2023-10-09T15:25:11;25.10;90.30
42803;DHT22;28447;48.682;9.022;2023-10-09T15:27:46;25.10;90.10
42803;DHT22;28447;48.682;9.022;2023-10-09T15:30:12;25.30;90.40
42803;DHT22;28447;48.682;9.022;2023-10-09T15:32:42;24.90;91.10
42803;DHT22;28447;48.682;9.022;2023-10-09T15:35:09;24.60;91.30
42803;DHT22;28447;48.682;9.022;2023-10-09T15:37:36;24.30;92.20
42803;DHT22;28447;48.682;9.022;2023-10-09T15:40:02;24.20;92.20
42803;DHT22;28447;48.682;9.022;2023-10-09T15:42:31;23.90;92.90
42803;DHT22;28447;48.682;9.022;2023-10-09T15:44:59;23.70;93.30
42803;DHT22;28447;48.682;9.022;2023-10-09T15:47:27;23.70;93.50
42803;DHT22;28447;48.682;9.022;2023-10-09T15:49:54;23.60;93.80
42803;DHT22;28447;48.682;9.022;2023-10-09T15:52:19;23.50;93.60
42803;DHT22;28447;48.682;9.022;2023-10-09T15:54:47;23.40;93.80
42803;DHT22;28447;48.682;9.022;2023-10-09T15:57:13;23.30;94.40
42803;DHT22;28447;48.682;9.022;2023-10-09T15:59:40;23.20;94.50
42803;DHT22;28447;48.682;9.022;2023-10-09T16:02:05;23.10;95.10
42803;DHT22;28447;48.682;9.022;2023-10-09T16:04:32;22.90;95.40
42803;DHT22;28447;48.682;9.022;2023-10-09T16:07:00;22.70;95.80
42803;DHT22;28447;48.682;9.022;2023-10-09T16:09:26;22.60;96.50
42803;DHT22;28447;48.682;9.022;2023-10-09T16:11:54;22.60;97.10
42803;DHT22;28447;48.682;9.022;2023-10-09T16:14:19;22.50;97.80
42803;DHT22;28447;48.682;9.022;2023-10-09T16:16:45;22.40;98.50
42803;DHT22;28447;48.682;9.022;2023-10-09T16:19:11;22.30;99.00
42803;DHT22;28447;48.682;9.022;2023-10-09T16:21:40;22.20;99.10
42803;DHT22;28447;48.682;9.022;2023-10-09T16:24:06;22.10;98.60
42803;DHT22;28447;48.682;9.022;2023-10-09T16:26:34;22.00;98.80
42803;DHT22;28447;48.682;9.022;2023-10-09T16:29:09;21.80;99.20
42803;DHT22;28447;48.682;9.022;2023-10-09T16:31:35;21.80;99.40
42803;DHT22;28447;48.682;9.022;2023-10-09T16:34:04;21.70;99.90
42803;DHT22;28447;48.682;9.022;2023-10-09T16:36:33;21.60;99.90
42803;DHT22;28447;48.682;9.022;2023-10-09T16:38:58;21.40;99.90
42803;DHT22;28447;48.682;9.022;2023-10-09T16:41:27;21.40;99.90
42803;DHT22;28447;48.682;9.022;2023-10-09T16:43:53;21.10;99.90
42803;DHT22;28447;48.682;9.022;2023-10-09T16:46:22;20.80;99.90
42803;DHT22;28447;48.682;9.022;2023-10-09T16:48:51;20.60;99.90
42803;DHT22;28447;48.682;9.022;2023-10-09T16:51:20;20.20;99.90
42803;DHT22;28447;48.682;9.022;2023-10-09T16:53:50;20.00;99.90
42803;DHT22;28447;48.682;9.022;2023-10-09T16:56:22;19.90;99.90
42803;DHT22;28447;48.682;9.022;2023-10-09T16:58:49;19.70;99.90
42803;DHT22;28447;48.682;9.022;2023-10-09T17:01:17;19.60;99.90
42803;DHT22;28447;48.682;9.022;2023-10-09T17:03:47;19.40;99.90
42803;DHT22;28447;48.682;9.022;2023-10-09T17:06:23;19.30;99.90
42803;DHT22;28447;48.682;9.022;2023-10-09T17:08:49;19.00;99.90
42803;DHT22;28447;48.682;9.022;2023-10-09T17:11:17;18.90;99.90
42803;DHT22;28447;48.682;9.022;2023-10-09T17:13:46;18.90;99.90
42803;DHT22;28447;48.682;9.022;2023-10-09T17:16:16;18.70;99.90
42803;DHT22;28447;48.682;9.022;2023-10-09T17:18:46;18.60;99.90
42803;DHT22;28447;48.682;9.022;2023-10-09T17:21:13;18.50;99.90
42803;DHT22;28447;48.682;9.022;2023-10-09T17:23:45;18.50;99.90
42803;DHT22;28447;48.682;9.022;2023-10-09T17:26:12;18.30;99.90
42803;DHT22;28447;48.682;9.022;2023-10-09T17:28:40;18.20;99.90
42803;DHT22;28447;48.682;9.022;2023-10-09T17:31:06;18.00;99.90
